Time,TemperatureF,DewpointF,PressureIn,WindDirection,WindDirectionDegrees,WindSpeedMPH,WindSpeedGustMPH,Humidity,HourlyPrecipIn,Conditions,Clouds,dailyrainin,SoftwareType,DateUTC
2013-08-29 00:05:00,68.1,67.5,29.90,South,179,1.0,15.0,98,0.00,,,0.00,Wunderground v.1.15,2013-08-29 04:05:00,
2013-08-29 00:10:00,68.0,67.4,29.90,South,180,1.0,1.0,98,0.00,,,0.00,Wunderground v.1.15,2013-08-29 04:10:00,
2013-08-29 00:15:00,68.0,67.4,29.90,South,179,0.0,15.0,98,0.00,,,0.00,Wunderground v.1.15,2013-08-29 04:15:00,
2013-08-29 00:20:00,67.9,67.3,29.90,South,179,0.0,15.0,98,0.00,,,0.00,Wunderground v.1.15,2013-08-29 04:20:00,
2013-08-29 00:25:00,67.9,67.3,29.90,South,181,1.0,15.0,98,0.00,,,0.00,Wunderground v.1.15,2013-08-29 04:25:00,
2013-08-29 00:30:00,68.0,67.4,29.90,South,176,1.0,1.0,98,0.00,,,0.00,Wunderground v.1.15,2013-08-29 04:30:00,
2013-08-29 00:40:00,68.0,67.4,29.90,South,177,0.0,15.0,98,0.00,,,0.00,Wunderground v.1.15,2013-08-29 04:40:00,
2013-08-29 00:45:00,68.1,67.5,29.91,SSE,150,0.0,15.0,98,0.00,,,0.00,Wunderground v.1.15,2013-08-29 04:45:00,
2013-08-29 00:55:00,68.1,67.5,29.91,South,179,0.0,15.0,98,0.00,,,0.00,Wunderground v.1.15,2013-08-29 04:55:00,
2013-08-29 01:00:00,68.1,67.5,29.91,WNW,300,0.0,15.0,98,0.00,,,0.00,Wunderground v.1.15,2013-08-29 05:00:00,
2013-08-29 01:05:00,68.1,67.5,29.91,NNW,342,1.0,15.0,98,0.00,,,0.00,Wunderground v.1.15,2013-08-29 05:05:00,
2013-08-29 01:11:00,68.1,67.5,29.91,North,356,1.0,1.0,98,0.00,,,0.00,Wunderground v.1.15,2013-08-29 05:11:00,
2013-08-29 01:20:00,68.1,67.5,29.91,NW,307,0.0,15.0,98,0.00,,,0.00,Wunderground v.1.15,2013-08-29 05:20:00,
2013-08-29 01:25:00,68.1,67.5,29.91,North,4,0.0,15.0,98,0.00,,,0.00,Wunderground v.1.15,2013-08-29 05:25:00,
2013-08-29 01:35:00,68.1,67.5,29.90,North,349,0.0,15.0,98,0.00,,,0.00,Wunderground v.1.15,2013-08-29 05:35:00,
2013-08-29 01:45:00,68.1,67.5,29.90,North,349,0.0,15.0,98,0.00,,,0.00,Wunderground v.1.15,2013-08-29 05:45:00,
2013-08-29 01:50:00,68.1,67.5,29.90,North,6,0.0,15.0,98,0.00,,,0.00,Wunderground v.1.15,2013-08-29 05:50:00,
2013-08-29 02:00:00,68.2,67.6,29.91,North,352,0.0,15.0,98,0.00,,,0.00,Wunderground v.1.15,2013-08-29 06:00:00,
2013-08-29 02:05:00,68.2,67.6,29.91,NW,326,0.0,15.0,98,0.00,,,0.00,Wunderground v.1.15,2013-08-29 06:05:00,
2013-08-29 02:10:00,68.2,67.6,29.91,NW,326,0.0,15.0,98,0.00,,,0.00,Wunderground v.1.15,2013-08-29 06:10:00,
2013-08-29 02:20:00,68.2,67.6,29.91,North,1,0.0,15.0,98,0.00,,,0.00,Wunderground v.1.15,2013-08-29 06:20:00,
2013-08-29 02:30:00,68.2,67.6,29.90,NE,44,1.0,15.0,98,0.00,,,0.00,Wunderground v.1.15,2013-08-29 06:30:00,
2013-08-29 02:40:00,68.4,67.8,29.91,ENE,73,2.0,2.0,98,0.00,,,0.00,Wunderground v.1.15,2013-08-29 06:40:00,
2013-08-29 02:50:00,68.4,67.5,29.91,NE,39,2.0,15.0,97,0.00,,,0.00,Wunderground v.1.15,2013-08-29 06:50:00,
2013-08-29 03:00:00,68.4,67.5,29.91,NE,39,1.0,15.0,97,0.00,,,0.00,Wunderground v.1.15,2013-08-29 07:00:00,
2013-08-29 03:10:00,68.4,67.5,29.91,NE,53,1.0,15.0,97,0.00,,,0.00,Wunderground v.1.15,2013-08-29 07:10:00,
2013-08-29 03:20:00,68.3,67.4,29.92,North,355,2.0,15.0,97,0.00,,,0.00,Wunderground v.1.15,2013-08-29 07:20:00,
2013-08-29 03:25:00,68.3,67.4,29.92,NW,315,2.0,15.0,97,0.00,,,0.00,Wunderground v.1.15,2013-08-29 07:25:00,
2013-08-29 03:35:00,68.2,67.3,29.93,North,11,3.0,15.0,97,0.00,,,0.00,Wunderground v.1.15,2013-08-29 07:35:00,
2013-08-29 03:45:00,68.2,67.0,29.93,NNW,347,3.0,15.0,96,0.00,,,0.00,Wunderground v.1.15,2013-08-29 07:45:00,
2013-08-29 03:55:00,68.2,67.0,29.92,North,356,2.0,15.0,96,0.00,,,0.00,Wunderground v.1.15,2013-08-29 07:55:00,
2013-08-29 04:05:00,68.1,66.9,29.92,NE,39,1.0,4.0,96,0.00,,,0.00,Wunderground v.1.15,2013-08-29 08:05:00,
2013-08-29 04:11:00,68.0,66.5,29.92,ENE,61,1.0,15.0,95,0.00,,,0.00,Wunderground v.1.15,2013-08-29 08:11:00,
2013-08-29 04:20:00,67.9,66.4,29.91,East,88,1.0,15.0,95,0.00,,,0.00,Wunderground v.1.15,2013-08-29 08:20:00,
2013-08-29 04:25:00,67.8,66.3,29.92,East,97,1.0,15.0,95,0.00,,,0.00,Wunderground v.1.15,2013-08-29 08:25:00,
2013-08-29 04:35:00,67.6,66.4,29.92,East,92,0.0,15.0,96,0.00,,,0.00,Wunderground v.1.15,2013-08-29 08:35:00,
2013-08-29 04:45:00,67.6,66.4,29.92,WNW,297,0.0,15.0,96,0.00,,,0.00,Wunderground v.1.15,2013-08-29 08:45:00,
2013-08-29 04:55:00,67.4,66.2,29.92,East,99,1.0,15.0,96,0.00,,,0.00,Wunderground v.1.15,2013-08-29 08:55:00,
2013-08-29 05:05:00,67.3,66.1,29.92,East,100,1.0,15.0,96,0.00,,,0.00,Wunderground v.1.15,2013-08-29 09:05:00,
2013-08-29 05:11:00,67.2,66.0,29.92,NNE,27,1.0,15.0,96,0.00,,,0.00,Wunderground v.1.15,2013-08-29 09:11:00,
2013-08-29 05:20:00,66.9,65.4,29.92,East,79,2.0,2.0,95,0.00,,,0.00,Wunderground v.1.15,2013-08-29 09:20:00,
2013-08-29 05:25:00,66.8,65.6,29.93,North,5,2.0,15.0,96,0.00,,,0.00,Wunderground v.1.15,2013-08-29 09:25:00,
2013-08-29 05:35:00,66.6,65.1,29.93,NE,36,1.0,15.0,95,0.00,,,0.00,Wunderground v.1.15,2013-08-29 09:35:00,
2013-08-29 05:45:00,66.4,64.9,29.94,NNW,345,1.0,15.0,95,0.00,,,0.00,Wunderground v.1.15,2013-08-29 09:45:00,
2013-08-29 05:55:00,66.1,64.6,29.95,North,6,2.0,15.0,95,0.00,,,0.00,Wunderground v.1.15,2013-08-29 09:55:00,
2013-08-29 06:05:00,65.9,64.7,29.95,NE,40,2.0,15.0,96,0.00,,,0.00,Wunderground v.1.15,2013-08-29 10:05:00,
2013-08-29 06:10:00,65.8,64.6,29.96,East,93,2.0,2.0,96,0.00,,,0.00,Wunderground v.1.15,2013-08-29 10:10:00,
2013-08-29 06:20:00,65.7,64.5,29.96,NE,53,3.0,3.0,96,0.00,,,0.00,Wunderground v.1.15,2013-08-29 10:20:00,
2013-08-29 06:30:00,65.5,64.0,29.97,NE,37,3.0,3.0,95,0.00,,,0.00,Wunderground v.1.15,2013-08-29 10:30:00,
2013-08-29 06:40:00,65.4,64.2,29.97,NNE,33,2.0,15.0,96,0.00,,,0.00,Wunderground v.1.15,2013-08-29 10:40:00,
2013-08-29 06:50:00,65.4,64.2,29.98,North,355,1.0,15.0,96,0.00,,,0.00,Wunderground v.1.15,2013-08-29 10:50:00,
2013-08-29 07:00:00,65.4,63.9,29.98,NE,34,1.0,15.0,95,0.00,,,0.00,Wunderground v.1.15,2013-08-29 11:00:00,
2013-08-29 07:10:00,65.3,64.1,29.98,NE,44,2.0,15.0,96,0.00,,,0.00,Wunderground v.1.15,2013-08-29 11:10:00,
2013-08-29 07:20:00,65.2,64.0,29.98,North,349,2.0,2.0,96,0.00,,,0.00,Wunderground v.1.15,2013-08-29 11:20:00,
2013-08-29 07:30:00,65.2,64.0,29.99,ENE,57,2.0,15.0,96,0.00,,,0.00,Wunderground v.1.15,2013-08-29 11:30:00,
2013-08-29 07:40:00,65.4,64.2,29.99,NNW,328,2.0,15.0,96,0.00,,,0.00,Wunderground v.1.15,2013-08-29 11:40:00,
2013-08-29 07:50:00,65.5,64.0,29.99,NNW,329,2.0,15.0,95,0.00,,,0.00,Wunderground v.1.15,2013-08-29 11:50:00,
2013-08-29 08:00:00,65.6,64.1,29.99,NNW,327,2.0,2.0,95,0.00,,,0.00,Wunderground v.1.15,2013-08-29 12:00:00,
2013-08-29 08:10:00,65.8,64.3,29.99,North,349,2.0,2.0,95,0.00,,,0.00,Wunderground v.1.15,2013-08-29 12:10:00,
2013-08-29 08:20:00,66.0,64.5,30.00,North,5,1.0,15.0,95,0.00,,,0.00,Wunderground v.1.15,2013-08-29 12:20:00,
2013-08-29 08:30:00,66.0,64.5,30.00,NNE,20,2.0,15.0,95,0.00,,,0.00,Wunderground v.1.15,2013-08-29 12:30:00,
2013-08-29 08:40:00,66.2,64.7,30.00,NE,55,1.0,1.0,95,0.00,,,0.00,Wunderground v.1.15,2013-08-29 12:40:00,
2013-08-29 08:50:00,66.3,64.8,30.00,North,11,1.0,15.0,95,0.00,,,0.00,Wunderground v.1.15,2013-08-29 12:50:00,
2013-08-29 09:00:00,66.4,64.6,30.00,ENE,62,1.0,15.0,94,0.00,,,0.00,Wunderground v.1.15,2013-08-29 13:00:00,
2013-08-29 09:10:00,66.3,64.5,30.00,NE,39,2.0,2.0,94,0.00,,,0.00,Wunderground v.1.15,2013-08-29 13:10:00,
2013-08-29 09:20:00,66.4,64.6,30.01,NE,42,2.0,15.0,94,0.00,,,0.00,Wunderground v.1.15,2013-08-29 13:20:00,
2013-08-29 09:30:00,66.5,64.7,30.01,North,3,1.0,15.0,94,0.00,,,0.00,Wunderground v.1.15,2013-08-29 13:30:00,
2013-08-29 09:40:00,66.6,64.5,30.01,North,354,3.0,15.0,93,0.00,,,0.00,Wunderground v.1.15,2013-08-29 13:40:00,
2013-08-29 09:50:00,66.7,64.3,30.01,NW,317,3.0,15.0,92,0.00,,,0.00,Wunderground v.1.15,2013-08-29 13:50:00,
2013-08-29 10:00:00,67.1,64.7,30.01,NNW,343,2.0,2.0,92,0.00,,,0.00,Wunderground v.1.15,2013-08-29 14:00:00,
2013-08-29 10:11:00,67.9,65.2,30.01,East,97,1.0,15.0,91,0.00,,,0.00,Wunderground v.1.15,2013-08-29 14:11:00,
2013-08-29 10:20:00,68.0,65.0,30.01,NE,37,2.0,2.0,90,0.00,,,0.00,Wunderground v.1.15,2013-08-29 14:20:00,
2013-08-29 10:30:00,68.2,65.2,30.01,NNE,27,1.0,15.0,90,0.00,,,0.00,Wunderground v.1.15,2013-08-29 14:30:00,
2013-08-29 10:35:00,68.2,64.8,30.01,NE,49,2.0,15.0,89,0.00,,,0.00,Wunderground v.1.15,2013-08-29 14:35:00,
2013-08-29 10:45:00,68.1,64.7,30.01,NE,40,2.0,15.0,89,0.00,,,0.00,Wunderground v.1.15,2013-08-29 14:45:00,
2013-08-29 10:55:00,68.3,65.3,30.02,NE,44,1.0,15.0,90,0.00,,,0.00,Wunderground v.1.15,2013-08-29 14:55:00,
2013-08-29 11:00:00,68.3,64.9,30.01,NE,40,1.0,15.0,89,0.00,,,0.00,Wunderground v.1.15,2013-08-29 15:00:00,
2013-08-29 11:10:00,68.4,65.0,30.02,SSW,197,2.0,15.0,89,0.00,,,0.00,Wunderground v.1.15,2013-08-29 15:10:00,
2013-08-29 11:20:00,69.0,65.9,30.01,NW,316,1.0,15.0,90,0.00,,,0.00,Wunderground v.1.15,2013-08-29 15:20:00,
2013-08-29 11:30:00,69.3,65.6,30.01,WNW,302,2.0,2.0,88,0.00,,,0.00,Wunderground v.1.15,2013-08-29 15:30:00,
2013-08-29 11:40:00,69.2,65.2,30.01,NW,309,2.0,15.0,87,0.00,,,0.00,Wunderground v.1.15,2013-08-29 15:40:00,
2013-08-29 11:50:00,69.4,66.0,30.02,North,1,1.0,15.0,89,0.00,,,0.00,Wunderground v.1.15,2013-08-29 15:50:00,
2013-08-29 12:00:00,69.5,65.8,30.01,NNW,330,1.0,1.0,88,0.00,,,0.00,Wunderground v.1.15,2013-08-29 16:00:00,
2013-08-29 12:05:00,69.6,65.9,30.01,NW,304,1.0,15.0,88,0.00,,,0.00,Wunderground v.1.15,2013-08-29 16:05:00,
2013-08-29 12:10:00,69.5,65.5,30.01,NE,42,1.0,15.0,87,0.00,,,0.00,Wunderground v.1.15,2013-08-29 16:10:00,
2013-08-29 12:20:00,69.4,66.0,30.01,NNE,13,2.0,2.0,89,0.00,,,0.00,Wunderground v.1.15,2013-08-29 16:20:00,
2013-08-29 12:30:00,69.0,65.9,30.01,NNE,15,2.0,15.0,90,0.00,,,0.00,Wunderground v.1.15,2013-08-29 16:30:00,
2013-08-29 12:40:00,68.7,65.3,30.01,North,360,2.0,15.0,89,0.00,,,0.00,Wunderground v.1.15,2013-08-29 16:40:00,
2013-08-29 12:50:00,68.7,65.3,30.01,NE,34,2.0,15.0,89,0.00,,,0.00,Wunderground v.1.15,2013-08-29 16:50:00,
2013-08-29 13:00:00,69.0,65.6,30.01,NE,47,2.0,15.0,89,0.00,,,0.00,Wunderground v.1.15,2013-08-29 17:00:00,
2013-08-29 13:10:00,69.5,65.8,30.00,NNW,345,3.0,15.0,88,0.00,,,0.00,Wunderground v.1.15,2013-08-29 17:10:00,
2013-08-29 13:20:00,69.8,65.8,30.01,North,353,2.0,2.0,87,0.00,,,0.00,Wunderground v.1.15,2013-08-29 17:20:00,
2013-08-29 13:25:00,70.0,66.3,30.01,NW,321,1.0,15.0,88,0.00,,,0.00,Wunderground v.1.15,2013-08-29 17:25:00,
2013-08-29 13:35:00,70.5,66.1,30.01,NW,316,1.0,15.0,86,0.00,,,0.00,Wunderground v.1.15,2013-08-29 17:35:00,
2013-08-29 13:45:00,70.8,66.7,30.01,North,354,2.0,15.0,87,0.00,,,0.00,Wunderground v.1.15,2013-08-29 17:45:00,
2013-08-29 13:55:00,70.5,66.1,30.01,NNE,24,2.0,15.0,86,0.00,,,0.00,Wunderground v.1.15,2013-08-29 17:55:00,
2013-08-29 14:05:00,69.9,66.2,30.00,NE,44,2.0,15.0,88,0.00,,,0.00,Wunderground v.1.15,2013-08-29 18:05:00,
2013-08-29 14:11:00,69.8,65.8,30.01,North,6,3.0,15.0,87,0.00,,,0.00,Wunderground v.1.15,2013-08-29 18:11:00,
2013-08-29 14:20:00,70.0,65.6,30.00,ENE,59,3.0,15.0,86,0.00,,,0.00,Wunderground v.1.15,2013-08-29 18:20:00,
2013-08-29 14:25:00,70.2,65.8,30.00,NE,41,3.0,15.0,86,0.00,,,0.00,Wunderground v.1.15,2013-08-29 18:25:00,
2013-08-29 14:35:00,70.7,66.0,30.00,North,8,2.0,15.0,85,0.00,,,0.00,Wunderground v.1.15,2013-08-29 18:35:00,
2013-08-29 14:45:00,71.0,66.3,30.00,NNW,343,3.0,15.0,85,0.00,,,0.00,Wunderground v.1.15,2013-08-29 18:45:00,
2013-08-29 14:55:00,71.3,66.6,30.00,NW,304,2.0,15.0,85,0.00,,,0.00,Wunderground v.1.15,2013-08-29 18:55:00,
2013-08-29 15:05:00,71.0,65.9,30.00,NNE,29,3.0,15.0,84,0.00,,,0.00,Wunderground v.1.15,2013-08-29 19:05:00,
2013-08-29 15:11:00,70.7,65.3,29.99,WNW,298,4.0,4.0,83,0.00,,,0.00,Wunderground v.1.15,2013-08-29 19:11:00,
2013-08-29 15:20:00,70.8,65.7,29.99,North,355,2.0,15.0,84,0.00,,,0.00,Wunderground v.1.15,2013-08-29 19:20:00,
2013-08-29 15:25:00,71.0,65.9,29.99,NNW,338,3.0,15.0,84,0.00,,,0.00,Wunderground v.1.15,2013-08-29 19:25:00,
2013-08-29 15:35:00,71.0,66.3,30.00,ENE,57,4.0,15.0,85,0.00,,,0.00,Wunderground v.1.15,2013-08-29 19:35:00,
2013-08-29 15:45:00,70.9,66.2,30.00,North,8,3.0,15.0,85,0.00,,,0.00,Wunderground v.1.15,2013-08-29 19:45:00,
2013-08-29 15:55:00,71.4,65.6,29.99,North,9,3.0,15.0,82,0.00,,,0.00,Wunderground v.1.15,2013-08-29 19:55:00,
2013-08-29 16:05:00,71.1,65.7,30.00,NE,41,4.0,15.0,83,0.00,,,0.00,Wunderground v.1.15,2013-08-29 20:05:00,
2013-08-29 16:10:00,71.1,65.7,30.00,NNW,342,3.0,3.0,83,0.00,,,0.00,Wunderground v.1.15,2013-08-29 20:10:00,
2013-08-29 16:20:00,71.1,65.3,30.00,NE,48,4.0,4.0,82,0.00,,,0.00,Wunderground v.1.15,2013-08-29 20:20:00,
2013-08-29 16:30:00,70.6,65.2,30.00,NNE,18,3.0,15.0,83,0.00,,,0.00,Wunderground v.1.15,2013-08-29 20:30:00,
2013-08-29 16:40:00,70.2,65.1,30.01,NE,36,4.0,4.0,84,0.00,,,0.00,Wunderground v.1.15,2013-08-29 20:40:00,
2013-08-29 16:50:00,69.9,64.8,30.01,NE,37,3.0,3.0,84,0.00,,,0.00,Wunderground v.1.15,2013-08-29 20:50:00,
2013-08-29 17:00:00,69.2,64.5,30.01,NNE,31,4.0,4.0,85,0.00,,,0.00,Wunderground v.1.15,2013-08-29 21:00:00,
2013-08-29 17:05:00,68.8,64.4,30.01,NNE,27,3.0,15.0,86,0.00,,,0.00,Wunderground v.1.15,2013-08-29 21:05:00,
2013-08-29 17:10:00,68.5,63.8,30.01,NE,44,4.0,4.0,85,0.00,,,0.00,Wunderground v.1.15,2013-08-29 21:10:00,
2013-08-29 17:20:00,68.3,63.9,30.01,NNE,32,3.0,3.0,86,0.00,,,0.00,Wunderground v.1.15,2013-08-29 21:20:00,
2013-08-29 17:25:00,68.2,63.2,30.01,NE,47,3.0,15.0,84,0.00,,,0.00,Wunderground v.1.15,2013-08-29 21:25:00,
2013-08-29 17:35:00,68.3,63.6,30.01,NE,43,2.0,15.0,85,0.00,,,0.00,Wunderground v.1.15,2013-08-29 21:35:00,
2013-08-29 17:45:00,68.1,63.8,30.01,ENE,63,3.0,15.0,86,0.00,,,0.00,Wunderground v.1.15,2013-08-29 21:45:00,
2013-08-29 17:55:00,67.9,63.6,30.01,NE,44,3.0,6.0,86,0.00,,,0.00,Wunderground v.1.15,2013-08-29 21:55:00,
2013-08-29 18:05:00,67.5,63.5,30.01,NNW,333,2.0,15.0,87,0.00,,,0.00,Wunderground v.1.15,2013-08-29 22:05:00,
2013-08-29 18:15:00,67.2,63.2,30.01,ENE,70,2.0,2.0,87,0.00,,,0.00,Wunderground v.1.15,2013-08-29 22:15:00,
2013-08-29 18:25:00,67.3,63.3,30.01,NNW,328,2.0,2.0,87,0.00,,,0.00,Wunderground v.1.15,2013-08-29 22:25:00,
2013-08-29 18:35:00,67.1,63.1,30.02,NE,51,2.0,2.0,87,0.00,,,0.00,Wunderground v.1.15,2013-08-29 22:35:00,
2013-08-29 18:45:00,66.8,62.8,30.02,NNE,23,3.0,15.0,87,0.00,,,0.00,Wunderground v.1.15,2013-08-29 22:45:00,
2013-08-29 18:55:00,66.5,62.8,30.02,NE,47,4.0,4.0,88,0.00,,,0.00,Wunderground v.1.15,2013-08-29 22:55:00,
2013-08-29 19:00:00,66.2,62.5,30.02,NE,34,3.0,15.0,88,0.00,,,0.00,Wunderground v.1.15,2013-08-29 23:00:00,
2013-08-29 19:10:00,66.1,62.4,30.03,NNE,30,2.0,15.0,88,0.00,,,0.00,Wunderground v.1.15,2013-08-29 23:10:00,
2013-08-29 19:20:00,65.8,62.5,30.03,NE,47,2.0,15.0,89,0.00,,,0.00,Wunderground v.1.15,2013-08-29 23:20:00,
2013-08-29 19:30:00,65.6,62.3,30.03,NE,40,3.0,3.0,89,0.00,,,0.00,Wunderground v.1.15,2013-08-29 23:30:00,
2013-08-29 19:40:00,65.4,62.1,30.02,NE,53,2.0,2.0,89,0.00,,,0.00,Wunderground v.1.15,2013-08-29 23:40:00,
2013-08-29 19:50:00,65.2,61.9,30.03,NE,47,2.0,15.0,89,0.00,,,0.00,Wunderground v.1.15,2013-08-29 23:50:00,
2013-08-29 19:55:00,65.1,61.8,30.03,NE,50,2.0,15.0,89,0.00,,,0.00,Wunderground v.1.15,2013-08-29 23:55:00,
2013-08-29 20:05:00,65.1,62.1,30.03,NE,44,1.0,15.0,90,0.00,,,0.00,Wunderground v.1.15,2013-08-30 00:05:00,
2013-08-29 20:11:00,65.0,62.0,30.03,ESE,107,2.0,2.0,90,0.00,,,0.00,Wunderground v.1.15,2013-08-30 00:11:00,
2013-08-29 20:20:00,64.9,61.9,30.03,East,81,1.0,1.0,90,0.00,,,0.00,Wunderground v.1.15,2013-08-30 00:20:00,
2013-08-29 20:25:00,64.9,61.9,30.03,NE,37,1.0,2.0,90,0.00,,,0.00,Wunderground v.1.15,2013-08-30 00:25:00,
2013-08-29 20:35:00,64.9,61.9,30.03,NE,44,2.0,15.0,90,0.00,,,0.00,Wunderground v.1.15,2013-08-30 00:35:00,
2013-08-29 20:40:00,64.9,61.9,30.03,NE,42,2.0,2.0,90,0.00,,,0.00,Wunderground v.1.15,2013-08-30 00:40:00,
2013-08-29 20:45:00,64.8,61.8,30.03,NNW,343,1.0,15.0,90,0.00,,,0.00,Wunderground v.1.15,2013-08-30 00:45:00,
2013-08-29 20:55:00,64.7,61.7,30.02,North,358,1.0,15.0,90,0.00,,,0.00,Wunderground v.1.15,2013-08-30 00:55:00,
2013-08-29 21:00:00,64.7,62.0,30.02,NNW,338,1.0,15.0,91,0.00,,,0.00,Wunderground v.1.15,2013-08-30 01:00:00,
2013-08-29 21:10:00,64.5,61.5,30.03,NE,41,1.0,1.0,90,0.00,,,0.00,Wunderground v.1.15,2013-08-30 01:10:00,
2013-08-29 21:20:00,64.5,61.5,30.03,NE,51,2.0,2.0,90,0.00,,,0.00,Wunderground v.1.15,2013-08-30 01:20:00,
2013-08-29 21:30:00,64.3,61.6,30.03,NNW,329,1.0,15.0,91,0.00,,,0.00,Wunderground v.1.15,2013-08-30 01:30:00,
2013-08-29 21:40:00,64.4,61.7,30.03,NNW,333,1.0,1.0,91,0.00,,,0.00,Wunderground v.1.15,2013-08-30 01:40:00,
2013-08-29 21:50:00,64.5,62.1,30.04,NW,325,1.0,1.0,92,0.00,,,0.00,Wunderground v.1.15,2013-08-30 01:50:00,
2013-08-29 22:00:00,64.3,61.6,30.04,NW,319,1.0,15.0,91,0.00,,,0.00,Wunderground v.1.15,2013-08-30 02:00:00,
2013-08-29 22:11:00,64.2,61.5,30.04,NNW,347,1.0,15.0,91,0.00,,,0.00,Wunderground v.1.15,2013-08-30 02:11:00,
2013-08-29 22:20:00,64.1,61.7,30.04,NNE,12,1.0,15.0,92,0.00,,,0.00,Wunderground v.1.15,2013-08-30 02:20:00,
2013-08-29 22:25:00,64.1,61.7,30.04,North,6,2.0,15.0,92,0.00,,,0.00,Wunderground v.1.15,2013-08-30 02:25:00,
2013-08-29 22:35:00,64.0,61.9,30.04,NE,35,1.0,15.0,93,0.00,,,0.00,Wunderground v.1.15,2013-08-30 02:35:00,
2013-08-29 22:45:00,63.7,61.3,30.03,NW,325,1.0,15.0,92,0.00,,,0.00,Wunderground v.1.15,2013-08-30 02:45:00,
2013-08-29 22:55:00,63.3,60.9,30.03,NNW,338,1.0,15.0,92,0.00,,,0.00,Wunderground v.1.15,2013-08-30 02:55:00,
2013-08-29 23:05:00,62.9,60.5,30.03,North,349,0.0,15.0,92,0.00,,,0.00,Wunderground v.1.15,2013-08-30 03:05:00,
2013-08-29 23:11:00,62.8,60.7,30.03,NNE,33,0.0,15.0,93,0.00,,,0.00,Wunderground v.1.15,2013-08-30 03:11:00,
2013-08-29 23:20:00,62.6,60.5,30.03,NNE,33,0.0,15.0,93,0.00,,,0.00,Wunderground v.1.15,2013-08-30 03:20:00,
2013-08-29 23:30:00,62.3,60.2,30.02,NNE,29,0.0,15.0,93,0.00,,,0.00,Wunderground v.1.15,2013-08-30 03:30:00,
2013-08-29 23:35:00,62.2,60.5,30.02,NNE,30,0.0,15.0,94,0.00,,,0.00,Wunderground v.1.15,2013-08-30 03:35:00,
2013-08-29 23:45:00,62.0,60.3,30.01,NE,36,0.0,15.0,94,0.00,,,0.00,Wunderground v.1.15,2013-08-30 03:45:00,
2013-08-29 23:55:00,61.8,60.1,30.02,NE,36,0.0,15.0,94,0.00,,,0.00,Wunderground v.1.15,2013-08-30 03:55:00,